Weather observations for the past three days for
Roosevelt Airport
Imperial (Metric)
Date Time (ast) Wind (mph) Vis. (mi.) Weather Sky Cond. Temperature (ºF) Relative Humidity Wind Chill (°F) Heat Index (°F) Pressure Precipitation (in)
Air Dwpt 6 hour altimeter (in) sea level (mb) 1 hr 3 hr 6 hr
Max. Min.
05 00:55 E 10 0.00 NULL NULL 80.6 73.4 79% 85 0 0.0
04 23:55 E 8 0.00 NULL NULL 78.8 73.4 84% 82 0 0.0
04 22:55 SE 6 0.00 NULL NULL 78.8 73.4 84% 82 0 0.0
04 21:55 E 7 0.00 NULL NULL 78.8 73.4 84% 82 0 0.0
04 20:55 SE 8 0.00 NULL NULL 78.8 73.4 84% 82 0 0.0
04 19:55 SE 7 0.00 NULL NULL 78.8 73.4 84% 82 0 0.0
04 18:55 SE 7 0.00 NULL NULL 80.6 73.4 79% 85 0 0.0
04 17:55 SE 8 0.00 NULL NULL 80.6 75.2 84% 86 0 0.0
04 16:55 E 8 0.00 NULL NULL 82.4 77 84% 91 0 0.0
04 15:55 E 10 0.00 NULL NULL 84.2 75.2 74% 92 0 0.0
04 14:55 E 9 0.00 NULL NULL 82.4 73.4 74% 88 0 0.0
04 13:55 SE 9 0.00 NULL NULL 82.4 73.4 74% 88 0 0.0
04 12:55 E 17 0.00 NULL NULL 84.2 73.4 70% 91 0 0.0
04 11:55 E 15 0.00 NULL NULL 84.2 77 79% 94 0 0.0
04 10:55 E 16 0.00 NULL NULL 84.2 75.2 74% 92 0 0.0
04 09:55 E 16 0.00 NULL NULL 84.2 73.4 70% 91 0 0.0
04 08:55 E 14 0.00 NULL NULL 84.2 73.4 70% 91 0 0.0
04 07:55 E 13 0.00 NULL NULL 82.4 73.4 74% 88 0 0.0
04 06:55 E 9 0.00 NULL NULL 78.8 73.4 84% 82 0 0.0
04 05:55 E 15 0.00 NULL NULL 78.8 73.4 84% 82 0 0.0
04 04:55 E 10 0.00 NULL NULL 78.8 73.4 84% 82 0 0.0
04 03:55 E 13 0.00 NULL NULL 78.8 73.4 84% 82 0 0.0
04 02:55 E 13 0.00 NULL NULL 78.8 73.4 84% 82 0 0.0
04 01:55 E 13 0.00 NULL NULL 78.8 73.4 84% 82 0 0.0
04 00:55 E 9 0.00 NULL NULL 78.8 73.4 84% 82 0 0.0
03 23:55 E 12 0.00 NULL NULL 78.8 73.4 84% 82 0 0.0
03 22:55 E 13 0.00 NULL NULL 78.8 73.4 84% 82 0 0.0
03 21:55 E 10 0.00 NULL NULL 78.8 73.4 84% 82 0 0.0
03 20:55 E 12 0.00 NULL NULL 78.8 73.4 84% 82 0 0.0
03 19:55 E 10 0.00 NULL NULL 78.8 73.4 84% 82 0 0.0
03 18:55 E 13 0.00 NULL NULL 78.8 71.6 79% 82 0 0.0
03 17:55 E 12 0.00 NULL NULL 80.6 71.6 74% 85 0 0.0
03 16:55 E 13 0.00 NULL NULL 82.4 71.6 70% 87 0 0.0
03 15:55 E 14 0.00 NULL NULL 84.2 73.4 70% 91 0 0.0
03 14:55 E 16 0.00 NULL NULL 84.2 73.4 70% 91 0 0.0
03 13:55 E 15 0.00 NULL NULL 84.2 75.2 74% 92 0 0.0
03 12:55 E 14 0.00 NULL NULL 84.2 73.4 70% 91 0 0.0
03 11:55 E 15 0.00 NULL NULL 84.2 73.4 70% 91 0 0.0
03 10:55 E 15 0.00 NULL NULL 84.2 73.4 70% 91 0 0.0
03 09:55 E 15 0.00 NULL NULL 84.2 73.4 70% 91 0 0.0
03 08:55 E 14 0.00 NULL NULL 82.4 73.4 74% 88 0 0.0
03 07:55 E 15 0.00 NULL NULL 82.4 71.6 70% 87 0 0.0
03 06:55 E 10 0.00 NULL NULL 80.6 71.6 74% 85 0 0.0
03 05:55 E 10 0.00 NULL NULL 77 71.6 83% 78 0 0.0
03 04:55 E 9 0.00 NULL NULL 77 69.8 79% 79 0 0.0
03 03:55 E 9 0.00 NULL NULL 78.8 69.8 74% 81 0 0.0
03 02:55 E 10 0.00 NULL NULL 78.8 69.8 74% 81 0 0.0
03 01:55 E 10 0.00 NULL NULL 78.8 69.8 74% 81 0 0.0
03 00:55 E 13 0.00 NULL NULL 78.8 69.8 74% 81 0 0.0
02 23:55 E 10 0.00 NULL NULL 78.8 71.6 79% 82 0 0.0
02 22:55 E 10 0.00 NULL NULL 78.8 71.6 79% 82 0 0.0
02 21:55 E 12 0.00 NULL NULL 78.8 73.4 84% 82 0 0.0
02 20:55 E 12 0.00 NULL NULL 78.8 71.6 79% 82 0 0.0
02 19:55 E 9 0.00 NULL NULL 78.8 71.6 79% 82 0 0.0
02 18:55 E 8 0.00 NULL NULL 78.8 71.6 79% 82 0 0.0
02 17:55 E 10 0.00 NULL NULL 80.6 71.6 74% 85 0 0.0
02 16:55 E 12 0.00 NULL NULL 82.4 71.6 70% 87 0 0.0
02 15:55 E 13 0.00 NULL NULL 84.2 73.4 70% 91 0 0.0
02 14:55 E 12 0.00 NULL NULL 84.2 73.4 70% 91 0 0.0
02 13:55 E 14 0.00 NULL NULL 84.2 73.4 70% 91 0 0.0
02 12:55 E 14 0.00 NULL NULL 84.2 73.4 70% 91 0 0.0
02 11:55 E 14 0.00 NULL NULL 82.4 73.4 74% 88 0 0.0
02 10:55 E 15 0.00 NULL NULL 84.2 73.4 70% 91 0 0.0
02 09:55 E 13 0.00 NULL NULL 84.2 73.4 70% 91 0 0.0
02 08:55 E 14 0.00 NULL NULL 82.4 71.6 70% 87 0 0.0
02 07:55 E 13 0.00 NULL NULL 80.6 71.6 74% 85 0 0.0
02 06:55 E 10 0.00 NULL NULL 78.8 71.6 79% 82 0 0.0
02 05:55 E 9 0.00 NULL NULL 77 71.6 83% 78 0 0.0
02 04:55 E 9 0.00 NULL NULL 77 71.6 83% 78 0 0.0
02 03:55 E 7 0.00 NULL NULL 77 71.6 83% 78 0 0.0
02 02:55 E 8 0.00 NULL NULL 78.8 71.6 79% 82 0 0.0
Date Time (ast) Wind (mph) Vis. (mi.) Weather Sky Cond. Air Dwpt Max. Min. Relative Humidity Wind Chill (°F) Heat Index (°F) altimeter (in) sea level (mb) 1 hr 3 hr 6 hr
6 hour
Temperature (ºF) Pressure Precipitation (in)